sensor_id;sensor_type;location;lat;lon;timestamp;pressure;altitude;pressure_sealevel;temperature;humidity
69622;BME280;56841;55.964;37.674;2023-04-15T00:01:07;100695.78;;;0.59;32.87
69622;BME280;56841;55.964;37.674;2023-04-15T00:03:33;100688.22;;;0.54;32.89
69622;BME280;56841;55.964;37.674;2023-04-15T00:05:59;100697.84;;;0.52;32.70
69622;BME280;56841;55.964;37.674;2023-04-15T00:08:26;100701.69;;;0.45;32.84
69622;BME280;56841;55.964;37.674;2023-04-15T00:10:52;100701.44;;;0.50;32.81
69622;BME280;56841;55.964;37.674;2023-04-15T00:13:17;100705.72;;;0.51;32.90
69622;BME280;56841;55.964;37.674;2023-04-15T00:15:43;100705.41;;;0.57;33.24
69622;BME280;56841;55.964;37.674;2023-04-15T00:18:09;100707.72;;;0.45;33.05
69622;BME280;56841;55.964;37.674;2023-04-15T00:20:34;100714.72;;;0.43;32.93
69622;BME280;56841;55.964;37.674;2023-04-15T00:23:01;100710.47;;;0.42;33.01
69622;BME280;56841;55.964;37.674;2023-04-15T00:25:28;100722.81;;;0.37;33.14
69622;BME280;56841;55.964;37.674;2023-04-15T00:27:54;100717.97;;;0.31;33.32
69622;BME280;56841;55.964;37.674;2023-04-15T00:30:19;100724.38;;;0.41;33.34
69622;BME280;56841;55.964;37.674;2023-04-15T00:32:45;100717.28;;;0.45;33.12
69622;BME280;56841;55.964;37.674;2023-04-15T00:35:11;100720.16;;;0.39;33.29
69622;BME280;56841;55.964;37.674;2023-04-15T00:37:37;100732.38;;;0.37;33.30
69622;BME280;56841;55.964;37.674;2023-04-15T00:40:03;100731.84;;;0.30;33.33
69622;BME280;56841;55.964;37.674;2023-04-15T00:42:33;100731.00;;;0.30;33.39
69622;BME280;56841;55.964;37.674;2023-04-15T00:44:59;100738.66;;;0.33;33.26
69622;BME280;56841;55.964;37.674;2023-04-15T00:47:26;100737.50;;;0.21;33.44
69622;BME280;56841;55.964;37.674;2023-04-15T00:49:54;100737.66;;;0.18;33.77
69622;BME280;56841;55.964;37.674;2023-04-15T00:52:19;100744.22;;;0.25;33.61
69622;BME280;56841;55.964;37.674;2023-04-15T00:54:45;100748.88;;;0.18;33.68
69622;BME280;56841;55.964;37.674;2023-04-15T00:57:11;100743.03;;;0.13;33.57
69622;BME280;56841;55.964;37.674;2023-04-15T00:59:37;100752.44;;;0.16;33.42
69622;BME280;56841;55.964;37.674;2023-04-15T01:02:03;100757.88;;;0.11;33.57
69622;BME280;56841;55.964;37.674;2023-04-15T01:04:32;100751.06;;;0.09;34.07
69622;BME280;56841;55.964;37.674;2023-04-15T01:06:58;100765.16;;;0.03;33.97
69622;BME280;56841;55.964;37.674;2023-04-15T01:09:24;100763.63;;;-0.01;34.17
69622;BME280;56841;55.964;37.674;2023-04-15T01:11:49;100767.28;;;-0.05;34.29
69622;BME280;56841;55.964;37.674;2023-04-15T01:14:16;100769.81;;;-0.04;34.32
69622;BME280;56841;55.964;37.674;2023-04-15T01:16:42;100772.50;;;-0.05;34.13
69622;BME280;56841;55.964;37.674;2023-04-15T01:19:09;100768.41;;;-0.11;34.05
69622;BME280;56841;55.964;37.674;2023-04-15T01:21:36;100773.91;;;-0.17;34.33
69622;BME280;56841;55.964;37.674;2023-04-15T01:24:09;100772.34;;;-0.21;34.17
69622;BME280;56841;55.964;37.674;2023-04-15T01:26:39;100776.44;;;-0.15;34.61
69622;BME280;56841;55.964;37.674;2023-04-15T01:29:07;100778.88;;;-0.12;34.82
69622;BME280;56841;55.964;37.674;2023-04-15T01:31:33;100783.66;;;-0.22;34.74
69622;BME280;56841;55.964;37.674;2023-04-15T01:33:59;100780.50;;;-0.29;35.14
69622;BME280;56841;55.964;37.674;2023-04-15T01:36:44;100786.25;;;-0.22;34.55
69622;BME280;56841;55.964;37.674;2023-04-15T01:39:09;100787.44;;;-0.29;34.93
69622;BME280;56841;55.964;37.674;2023-04-15T01:41:35;100794.13;;;-0.23;34.70
69622;BME280;56841;55.964;37.674;2023-04-15T01:44:02;100799.44;;;-0.27;34.84
69622;BME280;56841;55.964;37.674;2023-04-15T01:50:24;100799.44;;;-0.27;34.66
69622;BME280;56841;55.964;37.674;2023-04-15T01:52:55;100796.47;;;-0.38;35.08
69622;BME280;56841;55.964;37.674;2023-04-15T01:55:24;100799.50;;;-0.28;34.78
69622;BME280;56841;55.964;37.674;2023-04-15T01:57:51;100798.22;;;-0.38;34.89
69622;BME280;56841;55.964;37.674;2023-04-15T02:00:18;100806.84;;;-0.38;35.10
69622;BME280;56841;55.964;37.674;2023-04-15T02:02:45;100801.13;;;-0.44;35.34
69622;BME280;56841;55.964;37.674;2023-04-15T02:05:12;100808.38;;;-0.53;35.28
69622;BME280;56841;55.964;37.674;2023-04-15T02:07:38;100806.84;;;-0.38;35.29
69622;BME280;56841;55.964;37.674;2023-04-15T02:10:05;100816.94;;;-0.51;35.45
69622;BME280;56841;55.964;37.674;2023-04-15T02:12:35;100816.53;;;-0.41;35.21
69622;BME280;56841;55.964;37.674;2023-04-15T02:15:02;100816.13;;;-0.51;35.35
69622;BME280;56841;55.964;37.674;2023-04-15T02:17:29;100821.16;;;-0.48;35.50
69622;BME280;56841;55.964;37.674;2023-04-15T02:20:00;100827.25;;;-0.49;35.49
69622;BME280;56841;55.964;37.674;2023-04-15T02:22:27;100819.81;;;-0.57;35.21
69622;BME280;56841;55.964;37.674;2023-04-15T02:24:55;100827.38;;;-0.52;35.61
69622;BME280;56841;55.964;37.674;2023-04-15T02:27:22;100827.34;;;-0.51;35.27
69622;BME280;56841;55.964;37.674;2023-04-15T02:29:50;100829.72;;;-0.46;35.28
69622;BME280;56841;55.964;37.674;2023-04-15T02:32:17;100833.00;;;-0.42;35.17
69622;BME280;56841;55.964;37.674;2023-04-15T02:34:46;100828.22;;;-0.52;35.42
69622;BME280;56841;55.964;37.674;2023-04-15T02:37:14;100825.94;;;-0.39;35.25
69622;BME280;56841;55.964;37.674;2023-04-15T02:39:41;100834.56;;;-0.38;35.50
69622;BME280;56841;55.964;37.674;2023-04-15T02:42:09;100833.97;;;-0.45;35.07
69622;BME280;56841;55.964;37.674;2023-04-15T02:44:37;100843.19;;;-0.38;35.28
69622;BME280;56841;55.964;37.674;2023-04-15T02:47:05;100852.72;;;-0.38;35.20
69622;BME280;56841;55.964;37.674;2023-04-15T02:49:33;100853.50;;;-0.36;35.08
69622;BME280;56841;55.964;37.674;2023-04-15T02:52:00;100851.50;;;-0.30;35.08
69622;BME280;56841;55.964;37.674;2023-04-15T02:54:28;100865.22;;;-0.28;35.01
69622;BME280;56841;55.964;37.674;2023-04-15T02:56:55;100865.22;;;-0.28;35.26
69622;BME280;56841;55.964;37.674;2023-04-15T02:59:22;100869.78;;;-0.33;35.34
69622;BME280;56841;55.964;37.674;2023-04-15T03:01:49;100875.47;;;-0.25;35.43
69622;BME280;56841;55.964;37.674;2023-04-15T03:04:17;100864.97;;;-0.21;35.30
69622;BME280;56841;55.964;37.674;2023-04-15T03:06:44;100874.13;;;-0.33;35.15
69622;BME280;56841;55.964;37.674;2023-04-15T03:09:11;100880.63;;;-0.23;34.86
69622;BME280;56841;55.964;37.674;2023-04-15T03:11:38;100882.41;;;-0.25;35.16
69622;BME280;56841;55.964;37.674;2023-04-15T03:14:09;100886.44;;;-0.18;35.13
69622;BME280;56841;55.964;37.674;2023-04-15T03:16:40;100890.16;;;-0.05;35.03
69622;BME280;56841;55.964;37.674;2023-04-15T03:19:07;100896.91;;;-0.01;34.92
69622;BME280;56841;55.964;37.674;2023-04-15T03:21:34;100895.31;;;-0.03;34.62
69622;BME280;56841;55.964;37.674;2023-04-15T03:24:01;100892.38;;;0.05;34.61
69622;BME280;56841;55.964;37.674;2023-04-15T03:26:30;100897.06;;;0.15;34.95
69622;BME280;56841;55.964;37.674;2023-04-15T03:29:10;100890.91;;;0.18;34.65
69622;BME280;56841;55.964;37.674;2023-04-15T03:31:36;100900.59;;;0.14;34.34
69622;BME280;56841;55.964;37.674;2023-04-15T03:34:03;100896.50;;;0.28;34.34
69622;BME280;56841;55.964;37.674;2023-04-15T03:36:31;100900.38;;;0.19;34.25
69622;BME280;56841;55.964;37.674;2023-04-15T03:38:59;100901.19;;;0.19;34.40
69622;BME280;56841;55.964;37.674;2023-04-15T03:41:27;100896.44;;;0.29;34.29
69622;BME280;56841;55.964;37.674;2023-04-15T03:43:54;100901.00;;;0.24;34.05
69622;BME280;56841;55.964;37.674;2023-04-15T03:46:21;100905.75;;;0.33;33.85
69622;BME280;56841;55.964;37.674;2023-04-15T03:48:48;100910.75;;;0.19;34.17
69622;BME280;56841;55.964;37.674;2023-04-15T03:51:15;100910.47;;;0.25;34.18
69622;BME280;56841;55.964;37.674;2023-04-15T03:53:43;100913.50;;;0.35;33.80
69622;BME280;56841;55.964;37.674;2023-04-15T03:56:10;100907.53;;;0.33;33.98
69622;BME280;56841;55.964;37.674;2023-04-15T03:58:37;100910.59;;;0.41;33.65
69622;BME280;56841;55.964;37.674;2023-04-15T04:01:04;100908.91;;;0.59;33.81
69622;BME280;56841;55.964;37.674;2023-04-15T04:03:31;100913.97;;;0.62;33.45
69622;BME280;56841;55.964;37.674;2023-04-15T04:05:59;100910.31;;;0.66;33.27
69622;BME280;56841;55.964;37.674;2023-04-15T04:08:26;100908.03;;;0.77;33.13
69622;BME280;56841;55.964;37.674;2023-04-15T04:10:53;100915.22;;;0.72;33.15
69622;BME280;56841;55.964;37.674;2023-04-15T04:13:20;100922.03;;;0.92;33.25
69622;BME280;56841;55.964;37.674;2023-04-15T04:15:47;100923.22;;;0.86;32.85
69622;BME280;56841;55.964;37.674;2023-04-15T04:18:13;100934.34;;;0.88;32.85
69622;BME280;56841;55.964;37.674;2023-04-15T04:20:41;100926.91;;;1.00;32.17
69622;BME280;56841;55.964;37.674;2023-04-15T04:23:08;100930.41;;;1.16;32.55
69622;BME280;56841;55.964;37.674;2023-04-15T04:25:35;100928.00;;;1.30;32.13
69622;BME280;56841;55.964;37.674;2023-04-15T04:28:02;100926.63;;;1.40;32.11
69622;BME280;56841;55.964;37.674;2023-04-15T04:30:29;100937.19;;;1.55;32.02
69622;BME280;56841;55.964;37.674;2023-04-15T04:32:56;100933.03;;;1.33;31.54
69622;BME280;56841;55.964;37.674;2023-04-15T04:35:24;100936.94;;;1.42;32.09
69622;BME280;56841;55.964;37.674;2023-04-15T04:37:51;100936.50;;;1.51;31.51
69622;BME280;56841;55.964;37.674;2023-04-15T04:40:19;100940.38;;;1.60;31.83
69622;BME280;56841;55.964;37.674;2023-04-15T04:42:46;100937.19;;;1.55;31.96
69622;BME280;56841;55.964;37.674;2023-04-15T04:45:13;100938.84;;;1.73;31.35
69622;BME280;56841;55.964;37.674;2023-04-15T04:47:41;100938.84;;;1.73;31.30
69622;BME280;56841;55.964;37.674;2023-04-15T04:50:08;100936.44;;;1.86;31.20
69622;BME280;56841;55.964;37.674;2023-04-15T04:52:35;100935.44;;;1.88;31.13
69622;BME280;56841;55.964;37.674;2023-04-15T04:55:02;100936.16;;;2.08;31.21
69622;BME280;56841;55.964;37.674;2023-04-15T04:57:29;100943.75;;;2.28;31.44
69622;BME280;56841;55.964;37.674;2023-04-15T04:59:56;100932.81;;;2.22;30.53
69622;BME280;56841;55.964;37.674;2023-04-15T05:02:23;100942.59;;;2.34;31.03
69622;BME280;56841;55.964;37.674;2023-04-15T05:04:52;100939.22;;;2.32;31.06
69622;BME280;56841;55.964;37.674;2023-04-15T05:07:20;100946.91;;;2.51;31.35
69622;BME280;56841;55.964;37.674;2023-04-15T05:09:47;100939.75;;;2.54;30.54
69622;BME280;56841;55.964;37.674;2023-04-15T05:12:14;100939.56;;;2.42;30.42
69622;BME280;56841;55.964;37.674;2023-04-15T05:14:41;100943.00;;;2.42;30.54
69622;BME280;56841;55.964;37.674;2023-04-15T05:17:09;100939.59;;;2.57;30.45
69622;BME280;56841;55.964;37.674;2023-04-15T05:19:36;100944.97;;;2.70;30.71
69622;BME280;56841;55.964;37.674;2023-04-15T05:22:04;100940.16;;;2.78;30.23
69622;BME280;56841;55.964;37.674;2023-04-15T05:24:31;100948.25;;;2.58;30.23
69622;BME280;56841;55.964;37.674;2023-04-15T05:26:57;100940.66;;;2.85;30.32
69622;BME280;56841;55.964;37.674;2023-04-15T05:29:24;100939.13;;;2.97;30.11
69622;BME280;56841;55.964;37.674;2023-04-15T05:31:51;100943.00;;;2.90;29.60
69622;BME280;56841;55.964;37.674;2023-04-15T05:34:19;100945.28;;;2.96;29.49
69622;BME280;56841;55.964;37.674;2023-04-15T05:36:46;100947.59;;;3.16;29.40
69622;BME280;56841;55.964;37.674;2023-04-15T05:39:13;100947.59;;;3.16;28.99
69622;BME280;56841;55.964;37.674;2023-04-15T05:41:40;100951.69;;;3.36;29.19
69622;BME280;56841;55.964;37.674;2023-04-15T05:44:07;100951.19;;;3.29;29.01
69622;BME280;56841;55.964;37.674;2023-04-15T05:46:34;100950.00;;;3.35;29.14
69622;BME280;56841;55.964;37.674;2023-04-15T05:49:02;100950.59;;;3.24;28.83
69622;BME280;56841;55.964;37.674;2023-04-15T05:51:29;100952.25;;;3.41;28.69
69622;BME280;56841;55.964;37.674;2023-04-15T05:53:56;100957.88;;;3.19;28.90
69622;BME280;56841;55.964;37.674;2023-04-15T05:56:23;100953.84;;;3.44;28.98
69622;BME280;56841;55.964;37.674;2023-04-15T05:58:52;100962.59;;;3.73;28.35
69622;BME280;56841;55.964;37.674;2023-04-15T06:01:19;100960.47;;;3.79;28.27
69622;BME280;56841;55.964;37.674;2023-04-15T06:03:47;100964.09;;;3.91;28.23
69622;BME280;56841;55.964;37.674;2023-04-15T06:06:14;100954.41;;;4.08;28.00
69622;BME280;56841;55.964;37.674;2023-04-15T06:08:41;100960.06;;;4.00;27.46
69622;BME280;56841;55.964;37.674;2023-04-15T06:11:08;100971.94;;;4.20;27.54
69622;BME280;56841;55.964;37.674;2023-04-15T06:13:35;100961.94;;;4.26;27.76
69622;BME280;56841;55.964;37.674;2023-04-15T06:16:02;100971.75;;;4.09;27.33
69622;BME280;56841;55.964;37.674;2023-04-15T06:18:29;100967.38;;;4.09;27.10
69622;BME280;56841;55.964;37.674;2023-04-15T06:20:57;100962.25;;;4.08;27.12
69622;BME280;56841;55.964;37.674;2023-04-15T06:23:24;100960.84;;;4.16;26.83
69622;BME280;56841;55.964;37.674;2023-04-15T06:25:51;100970.25;;;4.33;27.04
69622;BME280;56841;55.964;37.674;2023-04-15T06:28:18;100969.97;;;4.23;27.30
69622;BME280;56841;55.964;37.674;2023-04-15T06:30:45;100971.28;;;4.45;27.39
69622;BME280;56841;55.964;37.674;2023-04-15T06:33:12;100968.16;;;4.67;27.19
69622;BME280;56841;55.964;37.674;2023-04-15T06:35:39;100968.75;;;4.43;27.08
69622;BME280;56841;55.964;37.674;2023-04-15T06:38:06;100970.84;;;4.38;26.76
69622;BME280;56841;55.964;37.674;2023-04-15T06:40:33;100968.28;;;4.37;26.30
69622;BME280;56841;55.964;37.674;2023-04-15T06:43:00;100970.16;;;4.20;26.14
69622;BME280;56841;55.964;37.674;2023-04-15T06:45:27;100975.50;;;4.19;25.96
69622;BME280;56841;55.964;37.674;2023-04-15T06:47:54;100969.34;;;4.34;26.33
69622;BME280;56841;55.964;37.674;2023-04-15T06:50:21;100974.25;;;4.53;26.07
69622;BME280;56841;55.964;37.674;2023-04-15T06:52:48;100980.25;;;4.41;26.09
69622;BME280;56841;55.964;37.674;2023-04-15T06:55:15;100973.25;;;4.41;26.05
69622;BME280;56841;55.964;37.674;2023-04-15T06:57:42;100979.97;;;4.45;26.32
69622;BME280;56841;55.964;37.674;2023-04-15T07:00:10;100987.50;;;4.64;26.25
69622;BME280;56841;55.964;37.674;2023-04-15T07:02:37;100979.78;;;4.48;26.11
69622;BME280;56841;55.964;37.674;2023-04-15T07:05:05;100985.06;;;4.61;25.84
69622;BME280;56841;55.964;37.674;2023-04-15T07:07:33;100977.59;;;4.69;25.69
69622;BME280;56841;55.964;37.674;2023-04-15T07:09:59;100984.03;;;4.78;25.71
69622;BME280;56841;55.964;37.674;2023-04-15T07:12:27;100978.91;;;4.77;25.65
69622;BME280;56841;55.964;37.674;2023-04-15T07:14:55;100977.06;;;4.91;25.77
69622;BME280;56841;55.964;37.674;2023-04-15T07:17:22;100978.78;;;4.92;25.39
69622;BME280;56841;55.964;37.674;2023-04-15T07:19:49;100981.63;;;4.61;25.48
69622;BME280;56841;55.964;37.674;2023-04-15T07:22:16;100989.28;;;5.05;25.75
69622;BME280;56841;55.964;37.674;2023-04-15T07:24:43;100980.06;;;5.39;25.23
69622;BME280;56841;55.964;37.674;2023-04-15T07:27:10;100988.13;;;5.36;24.63
69622;BME280;56841;55.964;37.674;2023-04-15T07:29:37;100976.34;;;5.16;24.75
69622;BME280;56841;55.964;37.674;2023-04-15T07:32:04;100986.19;;;5.13;24.84
69622;BME280;56841;55.964;37.674;2023-04-15T07:34:31;100991.06;;;5.05;24.71
69622;BME280;56841;55.964;37.674;2023-04-15T07:36:58;100980.28;;;5.09;24.66
69622;BME280;56841;55.964;37.674;2023-04-15T07:39:25;100976.81;;;5.09;24.47
69622;BME280;56841;55.964;37.674;2023-04-15T07:41:53;100971.41;;;5.12;25.05
69622;BME280;56841;55.964;37.674;2023-04-15T07:44:21;100969.78;;;5.23;25.32
69622;BME280;56841;55.964;37.674;2023-04-15T07:46:48;100971.56;;;5.23;24.28
69622;BME280;56841;55.964;37.674;2023-04-15T07:49:15;100972.31;;;5.38;24.87
69622;BME280;56841;55.964;37.674;2023-04-15T07:51:42;100970.38;;;5.54;24.24
69622;BME280;56841;55.964;37.674;2023-04-15T07:54:10;100966.41;;;5.61;24.00
69622;BME280;56841;55.964;37.674;2023-04-15T07:56:37;100968.38;;;5.58;23.81
69622;BME280;56841;55.964;37.674;2023-04-15T07:59:04;100962.84;;;5.75;23.74
69622;BME280;56841;55.964;37.674;2023-04-15T08:01:32;100964.13;;;6.08;23.41
69622;BME280;56841;55.964;37.674;2023-04-15T08:03:59;100964.56;;;6.14;22.98
69622;BME280;56841;55.964;37.674;2023-04-15T08:06:26;100965.28;;;6.16;23.46
69622;BME280;56841;55.964;37.674;2023-04-15T08:08:53;100968.34;;;6.23;23.29
69622;BME280;56841;55.964;37.674;2023-04-15T08:11:21;100980.50;;;6.11;23.00
69622;BME280;56841;55.964;37.674;2023-04-15T08:13:49;100975.31;;;6.35;23.15
69622;BME280;56841;55.964;37.674;2023-04-15T08:18:48;100965.84;;;6.58;22.84
69622;BME280;56841;55.964;37.674;2023-04-15T08:21:16;100971.09;;;6.58;22.50
69622;BME280;56841;55.964;37.674;2023-04-15T08:23:46;100964.25;;;6.69;22.80
69622;BME280;56841;55.964;37.674;2023-04-15T08:26:13;100965.44;;;6.52;22.21
69622;BME280;56841;55.964;37.674;2023-04-15T08:28:41;100972.81;;;6.47;22.09
69622;BME280;56841;55.964;37.674;2023-04-15T08:31:09;100968.63;;;6.44;21.98
69622;BME280;56841;55.964;37.674;2023-04-15T08:33:36;100968.59;;;6.57;22.01
69622;BME280;56841;55.964;37.674;2023-04-15T08:36:03;100968.13;;;6.63;22.31
69622;BME280;56841;55.964;37.674;2023-04-15T08:38:30;100951.25;;;6.67;21.87
69622;BME280;56841;55.964;37.674;2023-04-15T08:40:59;100953.38;;;6.49;21.95
69622;BME280;56841;55.964;37.674;2023-04-15T08:43:34;100954.34;;;6.35;21.29
69622;BME280;56841;55.964;37.674;2023-04-15T08:46:05;100950.13;;;6.46;21.67
69622;BME280;56841;55.964;37.674;2023-04-15T08:48:32;100953.09;;;6.28;22.06
69622;BME280;56841;55.964;37.674;2023-04-15T08:51:01;100954.84;;;6.53;21.66
69622;BME280;56841;55.964;37.674;2023-04-15T08:53:29;100949.63;;;6.77;21.64
69622;BME280;56841;55.964;37.674;2023-04-15T08:55:57;100951.94;;;6.69;21.95
69622;BME280;56841;55.964;37.674;2023-04-15T08:58:25;100946.31;;;6.62;21.86
69622;BME280;56841;55.964;37.674;2023-04-15T09:00:53;100949.50;;;6.79;22.36
69622;BME280;56841;55.964;37.674;2023-04-15T09:03:21;100945.41;;;6.87;22.07
69622;BME280;56841;55.964;37.674;2023-04-15T09:05:49;100944.16;;;7.04;20.83
69622;BME280;56841;55.964;37.674;2023-04-15T09:08:16;100943.00;;;7.08;21.01
69622;BME280;56841;55.964;37.674;2023-04-15T09:10:43;100944.84;;;7.30;21.32
69622;BME280;56841;55.964;37.674;2023-04-15T09:13:10;100938.19;;;7.38;20.95
69622;BME280;56841;55.964;37.674;2023-04-15T09:15:37;100942.16;;;7.43;20.50
69622;BME280;56841;55.964;37.674;2023-04-15T09:18:05;100933.84;;;7.60;20.70
69622;BME280;56841;55.964;37.674;2023-04-15T09:20:41;100934.22;;;7.67;20.92
69622;BME280;56841;55.964;37.674;2023-04-15T09:23:12;100927.66;;;7.84;20.75
69622;BME280;56841;55.964;37.674;2023-04-15T09:25:40;100926.25;;;7.91;19.61
69622;BME280;56841;55.964;37.674;2023-04-15T09:28:08;100927.56;;;8.19;20.23
69622;BME280;56841;55.964;37.674;2023-04-15T09:30:36;100925.88;;;8.41;20.25
69622;BME280;56841;55.964;37.674;2023-04-15T09:33:03;100913.81;;;8.16;20.25
69622;BME280;56841;55.964;37.674;2023-04-15T09:35:34;100920.97;;;8.02;19.73
69622;BME280;56841;55.964;37.674;2023-04-15T09:38:06;100921.59;;;8.40;19.55
69622;BME280;56841;55.964;37.674;2023-04-15T09:40:40;100925.28;;;8.60;19.45
69622;BME280;56841;55.964;37.674;2023-04-15T09:43:09;100916.72;;;8.78;19.71
69622;BME280;56841;55.964;37.674;2023-04-15T09:45:47;100915.88;;;8.89;19.87
69622;BME280;56841;55.964;37.674;2023-04-15T09:48:24;100912.78;;;9.05;19.35
69622;BME280;56841;55.964;37.674;2023-04-15T09:50:58;100918.78;;;9.07;19.61
69622;BME280;56841;55.964;37.674;2023-04-15T09:53:26;100918.22;;;9.24;20.26
69622;BME280;56841;55.964;37.674;2023-04-15T09:55:58;100916.84;;;9.09;19.29
69622;BME280;56841;55.964;37.674;2023-04-15T09:58:33;100917.91;;;9.18;19.25
69622;BME280;56841;55.964;37.674;2023-04-15T10:01:03;100904.28;;;9.55;19.38
69622;BME280;56841;55.964;37.674;2023-04-15T10:03:33;100919.31;;;9.22;19.40
69622;BME280;56841;55.964;37.674;2023-04-15T10:06:02;100929.19;;;9.41;19.65
69622;BME280;56841;55.964;37.674;2023-04-15T10:08:32;100912.13;;;9.45;19.93
69622;BME280;56841;55.964;37.674;2023-04-15T10:11:01;100920.28;;;9.63;19.66
69622;BME280;56841;55.964;37.674;2023-04-15T10:13:30;100922.53;;;9.88;18.92
69622;BME280;56841;55.964;37.674;2023-04-15T10:16:12;100920.16;;;10.16;18.88
69622;BME280;56841;55.964;37.674;2023-04-15T10:18:43;100917.28;;;10.29;18.86
69622;BME280;56841;55.964;37.674;2023-04-15T10:21:10;100920.41;;;10.43;19.12
69622;BME280;56841;55.964;37.674;2023-04-15T10:23:40;100917.50;;;10.47;18.62
69622;BME280;56841;55.964;37.674;2023-04-15T10:26:07;100910.97;;;10.51;18.19
69622;BME280;56841;55.964;37.674;2023-04-15T10:28:35;100908.78;;;10.65;18.51
69622;BME280;56841;55.964;37.674;2023-04-15T10:31:03;100906.28;;;10.64;18.26
69622;BME280;56841;55.964;37.674;2023-04-15T10:33:32;100901.47;;;11.08;18.54
69622;BME280;56841;55.964;37.674;2023-04-15T10:35:59;100895.31;;;10.78;17.95
69622;BME280;56841;55.964;37.674;2023-04-15T10:41:19;100897.13;;;10.78;18.40
69622;BME280;56841;55.964;37.674;2023-04-15T10:43:51;100901.44;;;10.79;17.90
69622;BME280;56841;55.964;37.674;2023-04-15T10:51:38;100899.75;;;10.97;18.18
69622;BME280;56841;55.964;37.674;2023-04-15T10:54:13;100899.78;;;10.78;17.96
69622;BME280;56841;55.964;37.674;2023-04-15T10:56:42;100892.81;;;10.86;18.43
69622;BME280;56841;55.964;37.674;2023-04-15T10:59:09;100895.59;;;11.24;18.67
69622;BME280;56841;55.964;37.674;2023-04-15T11:04:50;100886.16;;;11.02;18.21
69622;BME280;56841;55.964;37.674;2023-04-15T11:10:49;100879.72;;;11.33;18.27
69622;BME280;56841;55.964;37.674;2023-04-15T11:12:52;100887.06;;;11.49;17.67
69622;BME280;56841;55.964;37.674;2023-04-15T11:15:32;100883.00;;;11.65;17.94
69622;BME280;56841;55.964;37.674;2023-04-15T11:20:47;100888.94;;;11.86;18.27
69622;BME280;56841;55.964;37.674;2023-04-15T11:23:30;100883.53;;;11.68;18.08
69622;BME280;56841;55.964;37.674;2023-04-15T11:25:58;100878.66;;;11.73;18.06
69622;BME280;56841;55.964;37.674;2023-04-15T11:28:28;100873.72;;;11.98;17.89
69622;BME280;56841;55.964;37.674;2023-04-15T11:30:56;100873.50;;;11.72;17.57
69622;BME280;56841;55.964;37.674;2023-04-15T11:33:23;100867.09;;;11.84;17.55
69622;BME280;56841;55.964;37.674;2023-04-15T11:35:52;100877.19;;;11.42;17.66
69622;BME280;56841;55.964;37.674;2023-04-15T11:38:20;100879.41;;;11.56;17.13
69622;BME280;56841;55.964;37.674;2023-04-15T11:40:49;100871.53;;;11.83;17.57
69622;BME280;56841;55.964;37.674;2023-04-15T11:43:21;100865.66;;;11.90;17.32
69622;BME280;56841;55.964;37.674;2023-04-15T11:48:18;100863.53;;;11.56;17.34
69622;BME280;56841;55.964;37.674;2023-04-15T11:50:45;100873.38;;;11.73;17.45
69622;BME280;56841;55.964;37.674;2023-04-15T11:53:15;100862.44;;;11.96;17.67
69622;BME280;56841;55.964;37.674;2023-04-15T11:55:51;100860.69;;;12.14;17.20
69622;BME280;56841;55.964;37.674;2023-04-15T11:58:20;100850.47;;;12.19;17.31
69622;BME280;56841;55.964;37.674;2023-04-15T12:00:56;100856.06;;;11.89;17.40
69622;BME280;56841;55.964;37.674;2023-04-15T12:14:11;100839.28;;;12.25;17.67
69622;BME280;56841;55.964;37.674;2023-04-15T12:16:45;100831.25;;;12.45;17.12
69622;BME280;56841;55.964;37.674;2023-04-15T12:19:13;100835.53;;;12.64;17.37
69622;BME280;56841;55.964;37.674;2023-04-15T12:21:43;100829.72;;;12.78;17.56
69622;BME280;56841;55.964;37.674;2023-04-15T12:24:10;100826.53;;;12.56;17.25
69622;BME280;56841;55.964;37.674;2023-04-15T12:26:43;100827.28;;;12.67;17.64
69622;BME280;56841;55.964;37.674;2023-04-15T12:29:10;100829.09;;;13.02;16.91
69622;BME280;56841;55.964;37.674;2023-04-15T12:31:43;100822.22;;;13.95;16.77
69622;BME280;56841;55.964;37.674;2023-04-15T12:34:12;100817.13;;;14.77;15.81
69622;BME280;56841;55.964;37.674;2023-04-15T12:36:39;100820.41;;;15.20;15.26
69622;BME280;56841;55.964;37.674;2023-04-15T12:39:04;100808.13;;;15.03;15.28
69622;BME280;56841;55.964;37.674;2023-04-15T12:41:31;100812.56;;;16.30;14.89
69622;BME280;56841;55.964;37.674;2023-04-15T12:43:58;100818.03;;;16.59;14.61
69622;BME280;56841;55.964;37.674;2023-04-15T12:46:24;100817.22;;;16.59;14.55
69622;BME280;56841;55.964;37.674;2023-04-15T12:48:50;100798.00;;;16.64;14.16
69622;BME280;56841;55.964;37.674;2023-04-15T12:51:18;100810.13;;;16.74;14.83
69622;BME280;56841;55.964;37.674;2023-04-15T12:53:46;100810.88;;;16.83;14.46
69622;BME280;56841;55.964;37.674;2023-04-15T12:56:14;100816.13;;;16.68;14.46
69622;BME280;56841;55.964;37.674;2023-04-15T12:58:41;100822.88;;;17.02;14.60
69622;BME280;56841;55.964;37.674;2023-04-15T13:01:08;100809.94;;;17.81;14.11
69622;BME280;56841;55.964;37.674;2023-04-15T13:03:35;100808.63;;;17.92;13.93
69622;BME280;56841;55.964;37.674;2023-04-15T13:06:01;100797.81;;;17.26;14.26
69622;BME280;56841;55.964;37.674;2023-04-15T13:08:30;100799.31;;;17.73;14.06
69622;BME280;56841;55.964;37.674;2023-04-15T13:10:56;100802.63;;;17.90;14.24
69622;BME280;56841;55.964;37.674;2023-04-15T13:13:22;100801.81;;;17.89;14.07
69622;BME280;56841;55.964;37.674;2023-04-15T13:15:48;100809.69;;;18.91;13.38
69622;BME280;56841;55.964;37.674;2023-04-15T13:18:14;100800.03;;;19.88;13.34
69622;BME280;56841;55.964;37.674;2023-04-15T13:20:44;100805.34;;;19.81;13.15
69622;BME280;56841;55.964;37.674;2023-04-15T13:23:09;100802.97;;;19.30;13.25
69622;BME280;56841;55.964;37.674;2023-04-15T13:25:36;100803.03;;;18.23;13.61